Latest Weather Observations for Port Fairy

IDV60801

Issued at 9:35 pm EST Friday 1 August 2014 (issued every 30 minutes, with the page automatically refreshed every 10 minutes)

About weather observations | Map of weather stations | Latest weather observations for VIC | Other Formats
Station Details ID: 090175 Name: PORT FAIRY AWS Lat: -38.39 Lon: 142.23 Height: 10.0 m
Data from the previous 72 hours. | See also: Recent months at Port Fairy
Date/Time
EST
Temp
°C
App
Temp
°C
Dew
Point
Rel
Hum
%
Delta-T
°C
Wind Press
QNH
hPa
Press
MSL
hPa
Rain
since 9 am
mm
Dir
 
Spd
km/h
Gust
km/h
Spd
kts
Gust
kts
01/09:30pm 10.5 3.4 3.3 61 3.1 S 30 48 16 26 1022.4 - 2.4
01/09:27pm 10.7 3.6 3.7 62 3.1 S 30 48 16 26 1022.3 - 2.4
01/09:00pm 10.2 3.3 2.8 60 3.2 SSW 28 37 15 20 1021.8 1021.8 2.4
01/08:30pm 9.7 1.8 4.1 68 2.5 S 35 52 19 28 1021.3 - 2.4
01/08:20pm 9.9 1.7 4.5 69 2.4 S 37 48 20 26 1020.9 - 2.4
01/08:01pm 9.9 1.9 3.6 65 2.7 SW 35 56 19 30 1020.8 - 2.2
01/08:00pm 9.9 1.8 3.4 64 2.8 SW 35 50 19 27 1020.8 1020.8 2.2
01/07:31pm 8.8 1.1 3.6 70 2.2 S 33 54 18 29 1020.0 - 2.2
01/07:30pm 8.6 0.5 3.2 69 2.3 S 35 54 19 29 1019.9 - 2.2
01/07:02pm 9.9 2.6 4.3 68 2.5 SSW 32 50 17 27 1019.1 - 2.2
01/07:00pm 9.8 2.5 4.6 70 2.3 SSW 32 44 17 24 1019.0 1019.0 2.2
01/06:30pm 10.2 1.9 4.4 67 2.6 SW 37 63 20 34 1018.4 - 2.0
01/06:00pm 10.1 2.6 3.4 63 2.9 SSW 32 54 17 29 1017.7 1017.7 2.0
01/05:36pm 9.5 1.4 3.5 66 2.6 SW 35 57 19 31 1017.3 - 1.8
01/05:30pm 9.2 0.3 3.0 65 2.7 SW 39 56 21 30 1017.0 - 1.8
01/05:16pm 9.8 0.5 2.9 62 3.0 SSW 41 67 22 36 1016.5 - 1.8
01/05:00pm 10.2 0.9 2.8 60 3.2 SSW 41 54 22 29 1016.0 1016.0 1.8
01/04:48pm 10.2 1.2 4.4 67 2.6 SW 41 61 22 33 1015.7 - 1.8
01/04:30pm 9.3 -0.1 4.3 71 2.2 SW 43 57 23 31 1015.4 - 1.8
01/04:10pm 9.8 1.4 3.5 65 2.7 SW 37 61 20 33 1015.4 - 1.6
01/04:00pm 9.7 1.9 2.6 61 3.0 SW 33 46 18 25 1014.8 1014.8 1.6
01/03:30pm 9.0 -1.5 3.4 68 2.4 SW 48 67 26 36 1014.3 - 1.6
01/03:12pm 10.6 0.9 3.9 63 3.0 SW 44 65 24 35 1013.4 - 1.4
01/03:00pm 10.4 0.5 3.0 60 3.2 SW 44 59 24 32 1013.0 1013.0 1.4
01/02:44pm 9.9 0.2 3.9 66 2.6 SW 44 63 24 34 1012.6 - 1.4
01/02:30pm 10.2 0.4 3.5 63 2.9 SW 44 59 24 32 1012.2 - 1.4
01/02:10pm 10.2 -0.2 4.4 67 2.6 SW 48 67 26 36 1011.7 - 1.4
01/02:00pm 10.0 -1.5 4.4 68 2.5 SW 54 67 29 36 1011.5 1011.5 1.4
01/01:30pm 9.7 -1.4 4.5 70 2.3 SSW 52 80 28 43 1011.0 - 1.4
01/01:00pm 10.5 -1.2 3.1 60 3.2 SSW 54 76 29 41 1010.1 1010.1 1.4
01/12:32pm 9.4 -1.0 4.4 71 2.2 SW 48 80 26 43 1009.7 - 1.2
01/12:30pm 9.4 -0.7 3.6 67 2.5 SW 46 61 25 33 1009.7 - 1.2
01/12:00pm 9.7 -0.7 4.3 69 2.4 SW 48 69 26 37 1009.0 1009.0 0.8
01/11:30am 10.1 -0.3 4.0 66 2.7 SSW 48 76 26 41 1008.0 - 0.8
01/11:00am 10.3 -0.7 5.1 70 2.4 SSW 52 74 28 40 1006.7 1006.7 0.8
01/10:58am 10.0 0.1 5.0 71 2.3 SSW 46 74 25 40 1006.6 - 0.8
01/10:34am 9.4 1.7 5.4 76 1.8 S 35 57 19 31 1006.0 - 0.6
01/10:30am 9.7 2.1 5.9 77 1.7 S 35 48 19 26 1005.9 - 0.6
01/10:08am 9.2 1.8 4.8 74 2.0 SSW 33 54 18 29 1005.4 - 0.2
01/10:00am 9.0 1.5 4.4 73 2.0 S 33 50 18 27 1005.2 1005.2 0.0
01/09:35am 10.3 1.3 4.7 68 2.5 SSW 41 69 22 37 1004.4 - 0.0
01/09:30am 10.1 0.7 4.5 68 2.5 SSW 43 57 23 31 1004.1 - 0.0
01/09:02am 9.3 0.0 6.0 80 1.5 SW 44 67 24 36 1003.2 - 0.0
01/09:00am 9.3 0.2 6.0 80 1.5 SW 43 54 23 29 1003.1 1003.1 18.2
01/08:47am 8.9 -0.8 6.0 82 1.3 SW 46 67 25 36 1002.9 - 18.2
01/08:35am 6.8 -0.6 4.1 83 1.2 SW 32 41 17 22 1002.3 - 18.2
01/08:31am 7.4 -4.5 5.4 87 0.9 SW 57 76 31 41 1002.6 - 18.2
01/08:30am 7.4 -4.8 5.4 87 0.9 SSW 59 76 32 41 1002.5 - 18.2
01/08:23am 7.4 -5.6 5.4 87 0.9 SSW 63 76 34 41 1002.2 - 18.2
01/08:22am 8.0 -1.1 6.0 87 0.9 SW 43 74 23 40 1002.2 - 18.2
01/08:07am 6.7 -1.0 5.5 92 0.5 WSW 35 54 19 29 1001.8 - 18.2
01/08:00am 4.7 0.8 3.4 91 0.5 NW 13 32 7 17 1001.8 1001.8 18.2
01/07:30am 5.1 0.5 3.9 92 0.5 NW 17 30 9 16 1000.4 - 16.8
01/07:00am 4.5 -1.1 3.2 91 0.5 NNW 22 35 12 19 1000.5 1000.5 16.6
01/06:44am 4.6 -2.2 3.3 91 0.5 NNW 28 46 15 25 1000.1 - 16.0
01/06:30am 4.9 -1.4 3.6 91 0.5 NNW 26 43 14 23 999.7 - 14.8
01/06:00am 4.7 -0.6 3.2 90 0.6 NNW 20 30 11 16 999.7 999.7 14.8
01/05:30am 4.9 -1.1 3.2 89 0.7 NNW 24 41 13 22 1000.0 - 14.6
01/05:00am 5.3 -0.7 3.2 86 0.9 NW 24 41 13 22 1000.5 1000.5 13.8
01/04:30am 5.3 -1.5 3.2 86 0.9 NNW 28 50 15 27 998.7 - 13.0
01/04:18am 5.2 -2.0 3.1 86 0.9 NNW 30 50 16 27 998.6 - 13.0
01/04:00am 5.2 -1.2 3.2 87 0.8 NNW 26 41 14 22 998.9 998.9 13.0
01/03:35am 5.6 -1.5 3.3 85 1.0 NNW 30 48 16 26 999.4 - 12.6
01/03:30am 5.5 -2.0 3.2 85 1.0 NNW 32 46 17 25 999.1 - 12.6
01/03:00am 5.2 -1.7 2.7 84 1.0 NNW 28 44 15 24 999.9 999.9 12.6
01/02:30am 4.9 -1.6 2.4 84 1.0 NNW 26 48 14 26 999.9 - 12.6
01/02:22am 4.8 -2.1 2.3 84 1.0 NNW 28 48 15 26 999.9 - 12.6
01/02:00am 5.3 -1.2 2.8 84 1.0 NNW 26 41 14 22 1000.2 1000.2 12.6
01/01:30am 5.8 -1.0 3.3 84 1.0 NNW 28 54 15 29 1000.5 - 12.6
01/01:20am 5.7 -1.1 3.2 84 1.0 NNW 28 48 15 26 1000.5 - 12.6
01/01:00am 5.5 -0.9 3.0 84 1.0 NNW 26 39 14 21 1000.4 1000.4 12.6
01/12:30am 5.5 -0.9 3.0 84 1.0 NNW 26 41 14 22 1000.3 - 12.6
01/12:00am 5.4 0.2 2.6 82 1.1 NNW 19 26 10 14 1000.8 1000.8 12.4
 
Date/Time
EST
Temp
°C
App
Temp
°C
Dew
Point
Rel
Hum
%
Delta-T
°C
Wind Press
QNH
hPa
Press
MSL
hPa
Rain
since 9 am
mm
Dir
 
Spd
km/h
Gust
km/h
Spd
kts
Gust
kts
31/11:30pm 5.6 0.8 2.6 81 1.2 NNW 17 26 9 14 1000.5 - 12.2
31/11:00pm 6.3 0.5 2.4 76 1.6 NNW 22 35 12 19 1001.2 1001.2 11.6
31/10:30pm 6.3 1.3 1.6 72 1.9 NW 17 30 9 16 1000.7 - 11.6
31/10:00pm 7.1 1.7 1.2 66 2.4 NW 19 30 10 16 1000.3 1000.3 11.6
31/09:30pm 8.7 0.4 2.3 64 2.7 W 35 56 19 30 1000.2 - 11.6
31/09:03pm 8.4 -0.2 2.6 67 2.4 W 37 57 20 31 1000.1 - 11.6
31/09:00pm 8.2 0.0 2.7 68 2.3 W 35 48 19 26 1000.2 1000.2 11.6
31/08:56pm 8.3 -0.4 2.3 66 2.5 W 37 46 20 25 1000.1 - 11.6
31/08:42pm 8.7 -3.5 3.7 71 2.2 W 57 78 31 42 1000.1 - 11.6
31/08:39pm 9.4 -3.1 4.0 69 2.4 WSW 59 74 32 40 1000.1 - 11.6
31/08:30pm 9.5 0.9 2.8 63 2.9 W 37 59 20 32 999.6 - 11.6
31/08:01pm 8.3 1.2 3.8 73 1.9 WNW 30 48 16 26 999.2 - 11.6
31/08:00pm 8.2 1.1 3.7 73 2.0 WNW 30 46 16 25 999.2 999.2 11.6
31/07:30pm 8.2 0.0 2.9 69 2.2 W 35 63 19 34 998.9 - 11.2
31/07:07pm 8.9 1.1 3.1 67 2.5 W 33 54 18 29 998.6 - 11.2
31/07:00pm 8.7 0.1 2.7 66 2.6 W 37 54 20 29 998.5 998.5 11.2
31/06:58pm 8.5 -0.2 2.1 64 2.7 W 37 54 20 29 998.4 - 11.2
31/06:53pm 8.7 -4.5 2.3 64 2.7 W 61 80 33 43 998.9 - 11.2
31/06:52pm 9.1 0.2 3.1 66 2.6 W 39 80 21 43 998.9 - 11.2
31/06:33pm 8.5 0.8 3.6 71 2.1 WNW 33 52 18 28 998.2 - 11.2
31/06:30pm 8.5 0.5 3.6 71 2.1 WNW 35 52 19 28 998.2 - 11.2
31/06:25pm 7.9 0.1 3.0 71 2.1 WNW 33 52 18 28 998.2 - 11.2
31/06:23pm 7.7 -0.5 2.8 71 2.1 WNW 35 48 19 26 998.2 - 11.2
31/06:00pm 9.0 -0.9 5.0 76 1.8 W 46 70 25 38 997.8 997.8 11.2
31/05:53pm 9.5 -1.1 5.1 74 2.0 WSW 50 70 27 38 997.8 - 11.2
31/05:51pm 9.2 -2.7 4.4 72 2.1 WSW 56 70 30 38 997.8 - 11.2
31/05:30pm 9.2 1.4 4.8 74 2.0 W 35 59 19 32 997.0 - 11.2
31/05:26pm 8.5 2.0 4.9 78 1.6 W 28 57 15 31 997.2 - 11.2
31/05:00pm 8.1 2.7 4.7 79 1.5 NW 22 35 12 19 996.9 996.9 11.0
31/04:30pm 8.2 2.8 4.4 77 1.7 NW 22 39 12 21 996.6 - 11.0
31/04:00pm 7.7 1.9 4.3 79 1.5 NW 24 41 13 22 996.4 996.4 11.0
31/03:47pm 7.5 1.7 4.3 80 1.4 NW 24 37 13 20 996.4 - 11.0
31/03:30pm 7.6 -1.4 4.4 80 1.4 WNW 41 69 22 37 996.9 - 10.8
31/03:16pm 8.0 1.5 4.8 80 1.4 WNW 28 72 15 39 996.7 - 10.6
31/03:00pm 8.0 1.9 4.6 79 1.5 NW 26 54 14 29 996.4 996.4 10.4
31/02:37pm 9.0 2.6 5.0 76 1.8 WNW 28 76 15 41 995.7 - 10.2
31/02:30pm 9.0 3.3 5.0 76 1.8 NW 24 44 13 24 995.5 - 10.0
31/02:00pm 8.6 2.6 5.2 79 1.5 WNW 26 43 14 23 995.1 995.1 10.0
31/01:44pm 8.2 -1.1 5.1 81 1.4 WNW 43 63 23 34 995.8 - 10.0
31/01:43pm 8.2 -1.3 5.1 81 1.4 WNW 44 63 24 34 995.9 - 10.0
31/01:34pm 8.3 -6.1 5.1 80 1.4 W 70 91 38 49 996.1 - 10.0
31/01:30pm 8.6 -0.7 5.7 82 1.3 WNW 44 85 24 46 995.9 - 10.0
31/01:28pm 8.5 -0.2 5.8 83 1.2 WNW 41 85 22 46 995.7 - 10.0
31/01:00pm 8.7 0.1 6.5 86 1.0 W 41 63 22 34 995.4 995.4 9.6
31/12:30pm 9.2 -2.1 7.2 87 0.9 W 56 80 30 43 995.2 - 9.2
31/12:00pm 9.3 -1.2 7.4 88 0.9 W 52 76 28 41 995.3 995.3 8.0
31/11:50am 9.2 -3.4 7.3 88 0.9 W 63 82 34 44 995.2 - 7.6
31/11:48am 9.2 -4.2 7.3 88 0.9 W 67 82 36 44 995.2 - 7.6
31/11:30am 10.1 0.9 8.2 88 0.9 W 46 67 25 36 994.8 - 6.6
31/11:03am 10.4 4.6 7.8 84 1.3 WNW 28 48 15 26 994.3 - 4.6
31/11:00am 10.6 5.2 7.8 83 1.4 WNW 26 43 14 23 994.4 994.4 4.2
31/10:48am 10.8 2.6 6.7 76 1.9 W 39 57 21 31 994.0 - 2.6
31/10:42am 14.1 6.0 8.5 69 2.8 W 41 54 22 29 994.0 - 0.0
31/10:30am 14.6 6.9 8.8 68 2.9 NNW 39 63 21 34 992.7 - 0.0
31/10:00am 14.8 6.9 9.2 69 2.9 NNW 41 67 22 36 992.6 992.6 0.0
31/09:30am 14.2 5.6 8.8 70 2.7 NNW 44 70 24 38 992.9 - 0.0
31/09:00am 13.7 5.1 8.3 70 2.7 NNW 43 67 23 36 993.4 993.4 1.8
31/08:30am 13.3 6.7 8.4 72 2.4 NNW 33 57 18 31 994.6 - 1.8
31/08:00am 13.1 5.3 8.4 73 2.4 NNW 39 69 21 37 994.9 994.9 1.8
31/07:58am 13.1 5.3 8.4 73 2.3 NNW 39 69 21 37 995.0 - 1.8
31/07:30am 13.0 7.4 8.7 75 2.2 NNW 28 48 15 26 995.5 - 1.8
31/07:04am 12.7 6.4 8.8 77 2.0 NNW 32 56 17 30 995.9 - 1.8
31/07:00am 12.6 6.6 8.7 77 2.0 NNW 30 43 16 23 996.0 996.0 1.8
31/06:48am 12.6 7.0 8.9 78 1.9 NNW 28 48 15 26 996.3 - 1.8
31/06:30am 12.7 6.8 9.2 79 1.8 NNW 30 48 16 26 996.8 - 1.8
31/06:00am 13.7 7.8 9.2 74 2.3 NNW 30 54 16 29 996.8 996.8 1.8
31/05:30am 13.0 7.5 9.1 77 2.0 NNW 28 48 15 26 997.4 - 1.8
31/05:28am 13.0 7.5 9.1 77 2.0 NNW 28 48 15 26 997.5 - 1.8
31/05:00am 12.9 7.9 9.4 79 1.8 NNW 26 37 14 20 998.1 998.1 1.8
31/04:30am 13.4 7.2 9.3 76 2.1 NNW 32 52 17 28 998.5 - 1.8
31/04:11am 13.1 7.7 9.4 78 1.9 NNW 28 46 15 25 998.9 - 1.8
31/04:00am 12.7 8.8 9.3 80 1.7 NW 20 41 11 22 999.4 999.4 1.8
31/03:32am 14.0 8.1 9.2 73 2.4 NNW 30 48 16 26 999.9 - 1.6
31/03:30am 14.0 7.8 9.2 73 2.4 NNW 32 48 17 26 999.9 - 1.6
31/03:19am 14.0 8.2 9.4 74 2.4 NNW 30 52 16 28 1000.0 - 1.6
31/03:00am 13.9 8.4 9.3 74 2.4 NNW 28 46 15 25 1000.2 1000.2 1.6
31/02:30am 13.7 9.1 9.6 76 2.1 NNW 24 39 13 21 1000.6 - 1.6
31/02:07am 13.7 8.4 9.7 77 2.1 NNW 28 46 15 25 1001.2 - 1.6
31/02:00am 13.7 8.4 9.7 77 2.1 NNW 28 46 15 25 1001.3 1001.3 1.6
31/01:30am 13.5 8.2 9.9 79 1.9 NNW 28 44 15 24 1001.8 - 1.6
31/01:00am 13.5 8.2 9.9 79 1.9 NNW 28 46 15 25 1002.3 1002.3 1.6
31/12:42am 13.3 8.1 10.1 81 1.7 NNW 28 50 15 27 1002.8 - 1.6
31/12:30am 13.1 8.2 10.1 82 1.5 NNW 26 41 14 22 1003.2 - 1.6
31/12:00am 13.3 8.1 10.1 81 1.7 NNW 28 44 15 24 1003.8 1003.8 1.6
 
Date/Time
EST
Temp
°C
App
Temp
°C
Dew
Point
Rel
Hum
%
Delta-T
°C
Wind Press
QNH
hPa
Press
MSL
hPa
Rain
since 9 am
mm
Dir
 
Spd
km/h
Gust
km/h
Spd
kts
Gust
kts
30/11:38pm 13.5 8.3 10.3 81 1.7 NNW 28 48 15 26 1004.1 - 1.6
30/11:30pm 13.4 8.6 10.4 82 1.6 NNW 26 46 14 25 1004.2 - 1.6
30/11:03pm 13.4 8.3 10.6 83 1.5 NNW 28 46 15 25 1004.6 - 1.6
30/11:00pm 13.3 8.6 10.7 84 1.4 NNW 26 43 14 23 1004.6 1004.6 1.6
30/10:30pm 12.8 8.5 10.7 87 1.1 NNW 24 37 13 20 1005.1 - 1.6
30/10:00pm 12.5 8.5 10.6 88 1.0 NNW 22 37 12 20 1005.6 1005.6 1.6
30/09:30pm 13.5 7.0 10.3 81 1.7 NNW 35 57 19 31 1005.7 - 1.0
30/09:02pm 13.7 7.6 9.9 78 2.0 NNW 32 50 17 27 1005.5 - 1.0
30/09:00pm 13.7 8.0 9.9 78 2.0 NNW 30 48 16 26 1005.5 1005.5 1.0
30/08:32pm 13.9 7.8 9.9 77 2.1 NNW 32 57 17 31 1005.9 - 1.0
30/08:30pm 13.8 7.7 9.8 77 2.1 NNW 32 48 17 26 1005.7 - 1.0
30/08:00pm 13.9 9.7 9.7 76 2.2 NNW 22 37 12 20 1006.2 1006.2 1.0
30/07:30pm 13.7 9.8 9.6 76 2.1 NNW 20 35 11 19 1006.6 - 1.0
30/07:00pm 13.8 9.9 9.6 76 2.2 NW 20 32 11 17 1007.0 1007.0 1.0
30/06:30pm 13.9 9.7 9.7 76 2.2 NNW 22 33 12 18 1006.9 - 1.0
30/06:00pm 14.1 9.8 9.3 73 2.5 NW 22 41 12 22 1006.9 1006.9 1.0
30/05:30pm 14.3 9.7 9.7 74 2.4 NW 24 35 13 19 1007.0 - 1.0
30/05:03pm 14.6 9.4 10.2 75 2.3 NW 28 48 15 26 1006.6 - 1.0
30/05:00pm 14.6 9.8 10.4 76 2.2 NNW 26 44 14 24 1006.7 1006.7 1.0
30/04:30pm 14.7 10.3 10.3 75 2.3 NW 24 48 13 26 1006.9 - 1.0
30/04:00pm 15.3 10.6 10.7 74 2.4 NW 26 46 14 25 1007.0 1007.0 1.0
30/03:30pm 15.4 11.6 11.2 76 2.2 NW 22 44 12 24 1007.1 - 1.0
30/03:00pm 15.6 11.5 11.4 76 2.3 NW 24 37 13 20 1007.2 1007.2 1.0
30/02:30pm 16.4 12.7 12.6 78 2.1 WNW 24 44 13 24 1007.3 - 1.0
30/02:00pm 15.9 11.7 12.3 79 2.0 WNW 26 44 14 24 1007.4 1007.4 1.0
30/01:30pm 15.5 11.3 12.3 81 1.7 WNW 26 43 14 23 1007.8 - 1.0
30/01:00pm 14.4 9.7 12.1 86 1.2 WNW 28 48 15 26 1008.3 1008.3 1.0
30/12:46pm 14.2 9.6 12.2 88 1.1 WNW 28 52 15 28 1008.5 - 1.0
30/12:30pm 14.1 10.6 12.1 88 1.1 NW 22 37 12 20 1008.9 - 1.0
30/12:10pm 14.7 9.9 11.7 82 1.6 WNW 28 48 15 26 1009.3 - 0.4
30/12:00pm 15.9 12.5 12.5 80 1.9 NW 22 41 12 22 1009.1 1009.1 0.0
30/11:30am 15.8 12.1 12.7 82 1.7 NW 24 43 13 23 1009.4 - 0.0
30/11:00am 14.7 11.3 12.4 86 1.3 NW 22 39 12 21 1009.9 1009.9 0.0
30/10:30am 13.9 10.8 12.1 89 1.0 NW 20 35 11 19 1010.0 - 0.0
30/10:00am 14.0 10.4 12.0 88 1.1 NNW 22 32 12 17 1010.0 1010.0 0.0
30/09:30am 13.6 11.1 12.2 91 0.8 NNW 17 32 9 17 1010.0 - 0.0
30/09:00am 12.7 9.5 11.3 91 0.7 NNW 19 28 10 15 1010.4 1010.4 6.0
30/08:30am 12.4 9.5 11.1 92 0.7 NNW 17 26 9 14 1010.1 - 6.0
30/08:00am 11.6 8.9 10.3 92 0.7 NNW 15 26 8 14 1010.1 1010.1 6.0
30/07:30am 11.5 8.0 10.2 92 0.7 NNW 19 26 10 14 1009.7 - 6.0
30/07:00am 11.4 8.2 10.1 92 0.7 NNW 17 26 9 14 1009.4 1009.4 6.0
30/06:30am 11.2 7.6 10.0 92 0.6 NNW 19 28 10 15 1009.3 - 6.0
30/06:00am 11.1 8.7 9.9 92 0.6 NNW 13 20 7 11 1009.3 1009.3 6.0
30/05:30am 11.3 8.9 10.0 92 0.7 NNW 13 20 7 11 1009.5 - 6.0
30/05:00am 11.1 8.7 9.9 92 0.6 NNW 13 20 7 11 1009.7 1009.7 6.0
30/04:30am 11.2 8.3 9.8 91 0.7 NW 15 24 8 13 1009.7 - 6.0
30/04:00am 11.4 8.6 10.0 91 0.7 NW 15 22 8 12 1009.7 1009.7 6.0
30/03:30am 11.0 8.0 9.4 90 0.8 NW 15 20 8 11 1010.0 - 6.0
30/03:00am 11.0 8.8 9.3 89 0.9 NW 11 20 6 11 1010.1 1010.1 6.0
30/02:30am 11.6 9.4 9.5 87 1.1 NW 11 19 6 10 1010.2 - 6.0
30/02:00am 12.7 8.4 10.6 87 1.1 W 24 41 13 22 1010.2 1010.2 6.0
30/01:30am 12.3 8.0 10.7 90 0.8 W 24 39 13 21 1010.2 - 6.0
30/01:00am 12.5 10.4 11.1 91 0.7 NW 13 22 7 12 1010.0 1010.0 6.0
30/12:30am 13.2 10.9 11.9 92 0.7 WNW 15 30 8 16 1009.9 - 6.0
30/12:00am 13.1 10.9 12.0 93 0.6 WNW 15 24 8 13 1009.8 1009.8 6.0
 
Date/Time
EST
Temp
°C
App
Temp
°C
Dew
Point
Rel
Hum
%
Delta-T
°C
Wind Press
QNH
hPa
Press
MSL
hPa
Rain
since 9 am
mm
Dir
 
Spd
km/h
Gust
km/h
Spd
kts
Gust
kts
29/11:30pm 12.9 9.6 11.6 92 0.7 WNW 20 33 11 18 1009.6 - 6.0
29/11:00pm 13.4 10.2 12.0 91 0.8 WNW 20 33 11 18 1009.4 1009.4 5.6
29/10:30pm 13.0 8.9 11.6 91 0.7 WNW 24 39 13 21 1009.3 - 5.6
29/10:00pm 12.9 8.4 11.5 91 0.7 WNW 26 56 14 30 1009.1 1009.1 5.6

Other Formats:

Comma delimited format used in spreadsheet applications
http://www.bom.gov.au/fwo/IDV60801/IDV60801.94830.axf

JavaScript Object Notation format (JSON) in row-major order
http://www.bom.gov.au/fwo/IDV60801/IDV60801.94830.json